Portada
METAR-TAF:

METAR-TAF

Aeroports :

Base aèria

Hachinohe, Japó

latitud: 40-33N, longitud: 141-28E, altitud: 46 m

Observació

L'informe es va fer fa 12 hores i 12 minuts, a les 02:41 UTC
Vent 15 kt del Oest/Sud-Oest amb ràfegues de 30 kt
Temperatura 31°C
Humitat 63%
Pressió 1012 hPa
Visibilitat 10 km o més
Núvols disperses a una alçada de 4000 ft
Cel ennuvolat a una alçada de 23000 ft

METAR: RJSH 040241Z 25015G30KT 9999 SCT040 BKN230 31/23 Q1012 RMK 3CU040 A2990

Hora: 23:53 (14:53 UTC)


TAF: manca

Observacions i pronòstics meteorològics de més de 4000 aeroports (METAR i TAF).

Les estacions disponibles són els punts grocs i vermells al mapa.

Posi el ratolí al punt desitjat per veure el nom de l'estació.

Feu clic per veure les observacions i els pronòstics meteorològics.

Per canviar el mapa: feu clic els botons verds amb una creu de color negre per apropar; al botó verd amb un guió per allunyar la imatge; o en les fletxes verdes per a mapes adjacents.


METAR-TAF: